Time;durP1;ratioP1;P1;durP2;ratioP2;P2;SDS_P1;SDS_P2;PMS_P1;PMS_P2;Temp;Humidity;BMP_temperature;BMP_pressure;BME280_temperature;BME280_humidity;BME280_pressure;Samples;Min_cycle;Max_cycle;Signal;HPM_P1;HPM_P2
2022/10/21 00:00:25;;;;;;;15.77;9.80;;;17.30;99.20;;;17.77;66.75;98435.19;4968501;28;114299;-76
2022/10/21 00:02:51;;;;;;;14.83;9.80;;;17.30;99.20;;;17.76;66.77;98448.34;4969063;28;124017;-73
2022/10/21 00:05:18;;;;;;;19.23;10.63;;;17.30;99.20;;;17.74;66.72;98447.91;4968551;28;123502;-73
2022/10/21 00:07:44;;;;;;;13.80;9.80;;;17.30;99.20;;;17.74;66.80;98441.50;4953294;28;114899;-74
2022/10/21 00:10:12;;;;;;;17.40;10.10;;;17.30;99.20;;;17.71;66.73;98436.66;4967162;28;113946;-76
2022/10/21 00:12:39;;;;;;;20.90;10.33;;;17.30;99.20;;;17.69;66.84;98437.03;4966677;28;124212;-79
2022/10/21 00:15:07;;;;;;;15.53;9.67;;;17.30;99.20;;;17.66;66.89;98430.19;4969154;28;124413;-78
2022/10/21 00:17:38;;;;;;;15.70;9.90;;;17.20;99.20;;;17.64;66.86;98437.31;4970455;28;114369;-75
2022/10/21 00:20:09;;;;;;;14.93;10.00;;;17.20;99.20;;;17.62;66.79;98431.28;4960978;28;113833;-77
2022/10/21 00:22:36;;;;;;;15.27;10.30;;;17.20;99.20;;;17.60;66.91;98447.63;4968722;28;123407;-74
2022/10/21 00:25:03;;;;;;;15.50;10.10;;;17.20;99.30;;;17.57;66.96;98454.75;4965787;28;123819;-73
2022/10/21 00:27:30;;;;;;;13.93;9.33;;;17.10;99.30;;;17.57;67.09;98462.31;4969010;28;114675;-73
2022/10/21 00:29:57;;;;;;;15.77;10.03;;;17.10;99.30;;;17.54;66.99;98466.63;4952816;28;114004;-74
2022/10/21 00:32:23;;;;;;;21.60;11.40;;;17.10;99.30;;;17.52;66.86;98452.25;4957404;28;124059;-74
2022/10/21 00:34:50;;;;;;;14.53;8.53;;;17.10;99.40;;;17.50;67.27;98465.78;4964267;28;123733;-75
2022/10/21 00:37:16;;;;;;;16.40;10.27;;;17.00;99.40;;;17.50;67.12;98459.38;4967122;28;114132;-75
2022/10/21 00:39:43;;;;;;;15.10;9.63;;;17.00;99.40;;;17.48;67.22;98461.72;4960349;28;114042;-74
2022/10/21 00:42:17;;;;;;;23.33;11.90;;;17.00;99.40;;;17.43;67.44;98437.69;4962047;28;124524;-74
2022/10/21 00:45:06;;;;;;;16.87;10.23;;;17.00;99.50;;;17.34;67.42;98439.91;4961170;28;124543;-74
2022/10/21 00:48:29;;;;;;;17.40;10.23;;;16.90;99.50;;;17.33;67.55;98443.84;4957867;28;114345;-74
2022/10/21 00:51:12;;;;;;;24.00;9.67;;;16.90;99.60;;;17.30;67.69;98445.41;4932881;28;112359;-74
2022/10/21 00:53:45;;;;;;;14.93;9.57;;;16.90;99.70;;;17.31;67.83;98441.44;4958576;28;124804;-74
2022/10/21 00:56:19;;;;;;;15.13;10.57;;;16.90;99.70;;;17.33;67.89;98443.84;4957678;28;124027;-74
2022/10/21 00:58:47;;;;;;;17.23;9.53;;;16.90;99.80;;;17.33;67.95;98435.47;4964151;28;114224;-75
2022/10/21 01:01:13;;;;;;;12.10;8.57;;;16.90;99.80;;;17.34;67.88;98443.50;4955304;28;114345;-74
2022/10/21 01:03:40;;;;;;;15.00;9.40;;;17.00;99.90;;;17.35;68.11;98447.09;4961345;28;124467;-74
2022/10/21 01:06:10;;;;;;;16.70;8.70;;;16.90;99.80;;;17.36;67.72;98445.94;4947206;28;124220;-74
2022/10/21 01:08:38;;;;;;;14.87;8.93;;;16.90;99.90;;;17.37;68.09;98447.53;4943332;28;114148;-74
2022/10/21 01:11:12;;;;;;;13.50;8.73;;;16.90;99.90;;;17.38;67.98;98443.56;4947383;28;114013;-75
2022/10/21 01:14:02;;;;;;;12.70;8.50;;;16.90;99.90;;;17.38;67.96;98441.59;4956973;28;124359;-74
2022/10/21 01:16:43;;;;;;;14.90;9.00;;;16.90;99.90;;;17.37;68.07;98441.94;4948251;28;124459;-74
2022/10/21 01:19:59;;;;;;;11.20;8.20;;;16.90;99.90;;;17.32;67.94;98425.47;4953120;28;115273;-74
2022/10/21 01:22:50;;;;;;;15.90;9.00;;;16.90;99.90;;;17.32;68.07;98415.13;4962577;28;116810;-73
2022/10/21 01:25:55;;;;;;;12.00;8.10;;;16.90;99.90;;;17.30;67.99;98422.25;4950282;28;124405;-74
2022/10/21 01:29:19;;;;;;;11.87;8.43;;;16.90;99.90;;;17.28;68.00;98424.63;4952133;28;123715;-74
2022/10/21 01:31:58;;;;;;;13.07;9.00;;;16.90;99.90;;;17.30;67.99;98436.19;4962992;28;114265;-74
2022/10/21 01:34:53;;;;;;;10.87;8.53;;;17.00;99.90;;;17.28;67.89;98441.38;4962441;28;114071;-74
2022/10/21 01:38:16;;;;;;;13.17;8.60;;;16.90;99.90;;;17.26;68.09;98444.50;4958716;28;124093;-74
2022/10/21 01:40:58;;;;;;;11.13;7.10;;;16.90;99.90;;;17.26;68.11;98443.72;4966098;28;124339;-74
2022/10/21 01:43:38;;;;;;;12.53;7.73;;;16.90;99.90;;;17.25;67.90;98434.53;4967750;28;114419;-75
2022/10/21 01:46:14;;;;;;;11.50;7.30;;;16.80;99.80;;;17.23;67.92;98418.13;4961621;28;114571;-74
2022/10/21 01:48:47;;;;;;;14.83;8.00;;;16.90;99.90;;;17.23;68.06;98429.28;4962334;28;124093;-76
2022/10/21 01:51:16;;;;;;;11.33;7.90;;;16.80;99.80;;;17.23;68.11;98423.72;4949369;28;122917;-74
2022/10/21 01:53:51;;;;;;;16.37;7.97;;;16.80;99.90;;;17.24;68.23;98424.50;4963613;28;114373;-75
2022/10/21 01:56:19;;;;;;;10.47;7.17;;;16.80;99.90;;;17.23;68.27;98434.88;4973329;28;114139;-75
2022/10/21 01:58:48;;;;;;;14.53;8.93;;;16.80;99.90;;;17.24;68.18;98432.91;4969243;28;123973;-75
2022/10/21 02:01:17;;;;;;;12.13;8.23;;;16.80;99.90;;;17.22;68.21;98427.69;4970040;28;124537;-74
2022/10/21 02:03:50;;;;;;;17.70;8.57;;;16.80;99.90;;;17.22;67.95;98422.09;4955657;28;114637;-74
2022/10/21 02:06:17;;;;;;;12.07;8.50;;;16.80;99.90;;;17.21;68.13;98420.47;4955081;28;113016;-76
2022/10/21 02:08:44;;;;;;;9.17;6.90;;;16.80;99.90;;;17.20;68.24;98418.06;4966324;28;124289;-75
2022/10/21 02:11:11;;;;;;;12.00;7.10;;;16.70;99.90;;;17.19;68.11;98414.47;4969751;28;123919;-77
2022/10/21 02:13:57;;;;;;;14.00;7.23;;;16.70;99.90;;;17.19;68.20;98405.25;4970727;28;114293;-74
2022/10/21 02:16:36;;;;;;;11.00;7.23;;;16.70;99.90;;;17.17;68.06;98400.06;4955025;28;114410;-77
2022/10/21 02:19:08;;;;;;;10.60;7.07;;;16.70;99.90;;;17.17;68.33;98396.47;4953824;28;123307;-76
2022/10/21 02:21:35;;;;;;;11.53;7.70;;;16.70;99.90;;;17.17;68.48;98386.09;4958116;28;123696;-76
2022/10/21 02:25:02;;;;;;;9.03;7.40;;;16.70;99.90;;;17.16;68.30;98369.72;4955103;28;114165;-75
2022/10/21 02:27:29;;;;;;;11.57;7.70;;;16.70;99.90;;;17.16;68.57;98364.13;4970979;28;114174;-75
2022/10/21 02:29:58;;;;;;;12.40;7.53;;;16.70;99.90;;;17.17;68.42;98363.75;4968144;28;124099;-74
2022/10/21 02:32:48;;;;;;;8.53;6.40;;;16.70;99.90;;;17.21;68.45;98347.88;4966134;28;124060;-77
2022/10/21 02:36:09;;;;;;;13.43;6.40;;;16.70;99.90;;;17.20;68.54;98345.47;4955703;28;114627;-73
2022/10/21 02:38:50;;;;;;;10.57;6.47;;;16.70;99.90;;;17.21;68.51;98330.31;4948677;28;113081;-75
2022/10/21 02:41:22;;;;;;;8.60;5.80;;;16.70;99.90;;;17.22;68.71;98321.59;4967943;28;123543;-74
2022/10/21 02:43:57;;;;;;;13.13;7.13;;;16.70;99.90;;;17.23;68.61;98317.63;4960589;28;123942;-74
2022/10/21 02:46:24;;;;;;;12.30;6.87;;;16.70;99.90;;;17.23;68.90;98327.97;4969282;28;113748;-73
2022/10/21 02:48:52;;;;;;;9.63;6.40;;;16.70;99.90;;;17.22;68.83;98332.75;4967595;28;113776;-74
2022/10/21 02:51:18;;;;;;;9.70;6.20;;;16.70;99.90;;;17.25;68.79;98330.38;4960635;28;124082;-74
2022/10/21 02:53:45;;;;;;;10.30;6.77;;;16.70;99.90;;;17.26;68.84;98323.66;4964400;28;122659;-74
2022/10/21 02:56:11;;;;;;;10.37;6.43;;;16.80;99.90;;;17.25;68.88;98311.69;4967281;28;114461;-74
2022/10/21 02:58:38;;;;;;;8.27;6.23;;;16.80;99.90;;;17.27;69.04;98305.72;4969425;28;114065;-73
2022/10/21 03:01:05;;;;;;;10.10;6.33;;;16.80;99.90;;;17.28;69.04;98293.38;4960661;28;124243;-74
2022/10/21 03:03:31;;;;;;;7.70;6.20;;;16.80;99.90;;;17.28;68.86;98276.63;4964754;28;123552;-74
2022/10/21 03:05:58;;;;;;;12.80;8.63;;;16.80;99.90;;;17.30;68.98;98307.75;4968491;28;114395;-74
2022/10/21 03:08:24;;;;;;;13.60;7.40;;;16.80;99.90;;;17.31;68.78;98298.22;4959184;28;115058;-73
2022/10/21 03:10:51;;;;;;;11.53;6.70;;;16.80;99.90;;;17.31;68.98;98273.88;4964403;28;124037;-74
2022/10/21 03:13:18;;;;;;;9.80;6.60;;;16.90;99.90;;;17.35;68.75;98276.75;4965517;28;123748;-72
2022/10/21 03:15:44;;;;;;;12.23;7.10;;;16.80;99.90;;;17.33;68.80;98276.28;4957463;28;114393;-73
2022/10/21 03:18:11;;;;;;;8.67;7.00;;;16.80;99.90;;;17.34;68.88;98267.56;4954464;28;112978;-75
2022/10/21 03:20:37;;;;;;;13.30;8.40;;;16.80;99.90;;;17.34;68.95;98261.97;4967109;28;124139;-73
2022/10/21 03:23:04;;;;;;;8.27;5.90;;;16.90;99.90;;;17.34;68.89;98270.34;4961399;28;123738;-76
2022/10/21 03:25:30;;;;;;;11.57;8.50;;;16.90;99.90;;;17.36;68.93;98273.59;4949834;28;114061;-77
2022/10/21 03:27:57;;;;;;;8.90;7.03;;;18.20;99.90;;;17.37;68.98;98277.19;4967752;28;113891;-77
2022/10/21 03:30:23;;;;;;;9.03;7.27;;;16.90;99.90;;;17.37;69.10;98275.19;4965083;28;124117;-78
2022/10/21 03:32:50;;;;;;;11.40;7.70;;;16.90;99.90;;;17.39;69.04;98263.66;4964379;28;124036;-75
2022/10/21 03:35:16;;;;;;;9.10;6.93;;;16.90;99.90;;;17.40;69.04;98254.91;4966352;28;114082;-75
2022/10/21 03:37:43;;;;;;;9.73;6.30;;;16.90;99.90;;;17.41;69.15;98255.72;4952194;28;114079;-72
2022/10/21 03:40:10;;;;;;;10.53;7.40;;;16.90;99.90;;;17.43;69.14;98270.09;4955885;28;124075;-73
2022/10/21 03:42:36;;;;;;;10.47;6.90;;;16.90;99.90;;;17.44;68.96;98266.16;4970188;28;123163;-73
2022/10/21 03:45:03;;;;;;;11.47;7.03;;;16.90;99.90;;;17.43;69.03;98265.31;4969254;28;114515;-72
2022/10/21 03:47:30;;;;;;;11.00;6.60;;;16.90;99.90;;;17.42;69.29;98254.53;4966672;28;113656;-73
2022/10/21 03:49:57;;;;;;;12.67;6.63;;;16.90;99.90;;;17.43;68.89;98253.34;4964816;28;123982;-74
2022/10/21 03:52:23;;;;;;;10.23;6.40;;;16.90;99.90;;;17.44;69.19;98260.56;4954401;28;123958;-72
2022/10/21 03:54:50;;;;;;;10.50;6.83;;;16.90;99.90;;;17.44;69.27;98249.41;4962678;28;115345;-72
2022/10/21 03:57:17;;;;;;;10.03;6.03;;;16.90;99.90;;;17.45;69.26;98254.59;4970524;28;113912;-72
2022/10/21 03:59:43;;;;;;;11.13;6.17;;;16.90;99.90;;;17.45;69.61;98257.38;4966338;28;124158;-74
2022/10/21 04:02:10;;;;;;;10.23;5.63;;;16.90;99.90;;;17.46;69.14;98263.78;4967787;28;123910;-72
2022/10/21 04:04:37;;;;;;;15.97;6.77;;;16.90;99.90;;;17.47;69.15;98259.81;4968022;28;114210;-74
2022/10/21 04:07:03;;;;;;;11.17;6.83;;;16.90;99.90;;;17.47;69.30;98257.03;4967929;28;113748;-76
2022/10/21 04:09:30;;;;;;;7.80;5.30;;;16.90;99.90;;;17.48;69.20;98253.03;4959063;28;125314;-72
2022/10/21 04:11:56;;;;;;;10.43;6.30;;;16.90;99.90;;;17.48;69.19;98241.88;4964555;28;124128;-74
2022/10/21 04:14:23;;;;;;;15.70;5.90;;;17.00;99.90;;;17.49;69.36;98240.72;4968198;28;114189;-74
2022/10/21 04:16:49;;;;;;;7.37;5.60;;;17.00;99.90;;;17.50;69.12;98236.72;4969664;28;114211;-75
2022/10/21 04:19:18;;;;;;;8.03;5.27;;;17.00;99.90;;;17.51;69.21;98232.75;4967523;28;124659;-74
2022/10/21 04:21:46;;;;;;;7.20;5.27;;;17.00;99.90;;;17.53;69.02;98230.41;4952854;28;123737;-74
2022/10/21 04:24:12;;;;;;;14.23;5.47;;;17.00;99.90;;;17.56;69.18;98235.22;4949704;28;113959;-74
2022/10/21 04:26:41;;;;;;;10.23;5.03;;;18.20;99.90;;;17.60;69.07;98226.94;4949582;28;113943;-74
2022/10/21 04:29:08;;;;;;;9.17;5.20;;;17.10;99.90;;;17.63;69.03;98218.59;4964975;28;124320;-74
2022/10/21 04:31:34;;;;;;;18.13;6.73;;;17.10;99.90;;;17.65;68.83;98205.06;4966646;28;124362;-75
2022/10/21 04:34:01;;;;;;;9.73;5.03;;;17.10;99.90;;;17.66;68.92;98215.06;4964007;28;114282;-74
2022/10/21 04:36:27;;;;;;;8.67;5.70;;;17.20;99.90;;;17.67;69.00;98213.88;4950991;28;115549;-75
2022/10/21 04:38:54;;;;;;;8.80;5.37;;;17.20;99.90;;;17.70;68.83;98205.91;4966464;28;123111;-74
2022/10/21 04:41:20;;;;;;;8.63;5.83;;;17.20;99.90;;;17.72;68.85;98207.16;4946592;28;123079;-77
2022/10/21 04:43:47;;;;;;;8.93;4.80;;;17.20;99.90;;;17.74;69.16;98209.59;4950771;28;115282;-74
2022/10/21 04:46:15;;;;;;;6.80;4.47;;;17.20;99.90;;;17.75;68.71;98211.19;4948961;28;115400;-74
2022/10/21 04:48:42;;;;;;;7.47;5.27;;;17.20;99.90;;;17.77;68.73;98211.63;4947428;28;124039;-77
2022/10/21 04:51:09;;;;;;;11.77;5.40;;;17.20;99.90;;;17.77;68.49;98200.44;4952032;28;123973;-74
2022/10/21 04:53:35;;;;;;;7.90;5.50;;;17.20;99.90;;;17.77;68.62;98206.84;4954771;28;114664;-74
2022/10/21 04:56:02;;;;;;;9.37;5.23;;;17.30;99.90;;;17.77;68.64;98201.25;4954143;28;113478;-74
2022/10/21 04:58:28;;;;;;;7.87;4.73;;;17.30;99.90;;;17.78;68.45;98202.06;4953012;28;123880;-75
2022/10/21 05:00:55;;;;;;;14.53;4.70;;;17.30;99.90;;;17.80;68.63;98199.72;4958219;28;123755;-75
2022/10/21 05:03:21;;;;;;;11.57;5.20;;;17.30;99.90;;;17.81;68.47;98202.16;4951534;28;114305;-74
2022/10/21 05:05:50;;;;;;;8.13;4.80;;;17.30;99.90;;;17.82;68.56;98203.75;4951209;28;113854;-76
2022/10/21 05:08:18;;;;;;;9.93;4.53;;;17.30;99.90;;;17.84;68.24;98201.41;4961844;28;124054;-74
2022/10/21 05:10:44;;;;;;;7.53;4.00;;;17.30;99.90;;;17.86;68.50;98204.59;4956130;28;123488;-75
2022/10/21 05:13:11;;;;;;;5.80;4.23;;;17.40;99.90;;;17.88;68.53;98207.03;4953926;28;113316;-74
2022/10/21 05:15:38;;;;;;;9.17;4.93;;;17.40;99.90;;;17.89;68.40;98211.44;4956188;28;114098;-75
2022/10/21 05:18:04;;;;;;;5.57;3.50;;;17.30;99.90;;;17.88;68.51;98202.25;4962096;28;124648;-74
2022/10/21 05:20:31;;;;;;;9.47;4.23;;;17.30;99.90;;;17.88;68.45;98202.25;4955374;28;122773;-76
2022/10/21 05:22:57;;;;;;;8.47;3.77;;;17.40;99.90;;;17.90;68.44;98201.88;4955503;28;113149;-75
2022/10/21 05:25:24;;;;;;;12.53;4.50;;;17.40;99.90;;;17.90;68.47;98201.88;4941698;28;113141;-75
2022/10/21 05:27:50;;;;;;;11.27;4.43;;;17.40;99.90;;;17.89;68.38;98203.06;4968875;28;123711;-77
2022/10/21 05:30:19;;;;;;;7.67;3.73;;;17.40;99.90;;;17.89;68.50;98194.66;4953272;28;123793;-74
2022/10/21 05:32:45;;;;;;;10.37;4.47;;;17.40;99.90;;;17.92;68.76;98196.75;4958178;28;116087;-75
2022/10/21 05:35:12;;;;;;;13.03;4.20;;;17.40;99.90;;;17.93;68.62;98187.16;4955890;28;114988;-76
2022/10/21 05:37:38;;;;;;;8.53;4.17;;;17.40;99.90;;;17.95;68.66;98195.97;4952574;28;124023;-75
2022/10/21 05:40:06;;;;;;;7.60;3.83;;;17.40;99.90;;;17.94;68.61;98199.94;4954511;28;122744;-74
2022/10/21 05:42:33;;;;;;;7.40;3.47;;;17.50;99.90;;;17.95;68.93;98190.38;4954969;28;114133;-74
2022/10/21 05:44:59;;;;;;;9.50;3.83;;;17.50;99.90;;;17.96;68.94;98186.41;4955198;28;114292;-73
2022/10/21 05:47:26;;;;;;;15.70;4.23;;;17.50;99.90;;;17.98;69.10;98178.44;4954895;28;124031;-74
2022/10/21 05:49:52;;;;;;;10.40;3.70;;;17.50;99.90;;;18.01;69.21;98180.50;4952630;28;124082;-75
2022/10/21 05:52:19;;;;;;;10.80;3.73;;;17.50;99.90;;;18.04;69.27;98181.72;4972405;28;114753;-73
2022/10/21 05:54:48;;;;;;;14.10;3.63;;;17.50;99.90;;;18.05;69.42;98180.53;4960897;28;113998;-77
2022/10/21 05:57:14;;;;;;;7.27;3.50;;;17.60;99.90;;;18.07;69.60;98175.38;4960034;28;125272;-76
2022/10/21 05:59:41;;;;;;;13.27;4.10;;;17.60;99.90;;;18.07;69.62;98172.56;4963812;28;124082;-77
2022/10/21 06:02:09;;;;;;;10.43;4.10;;;17.60;99.90;;;18.08;69.51;98161.03;4968633;28;113406;-74
2022/10/21 06:04:35;;;;;;;5.60;3.30;;;17.60;99.90;;;18.10;69.77;98158.66;4949219;28;112963;-74
2022/10/21 06:07:02;;;;;;;7.93;3.57;;;17.60;99.90;;;18.14;69.77;98163.50;4960150;28;124640;-86
2022/10/21 06:09:28;;;;;;;6.47;3.47;;;17.70;99.90;;;18.18;69.86;98167.94;4969403;28;121963;-75
2022/10/21 06:11:56;;;;;;;12.40;3.87;;;17.70;99.90;;;18.23;69.76;98164.00;4952183;28;114224;-74
2022/10/21 06:14:25;;;;;;;5.70;3.07;;;17.70;99.90;;;18.26;69.93;98169.66;4966250;28;113954;-75
2022/10/21 06:16:51;;;;;;;8.53;3.50;;;17.80;99.90;;;18.29;69.30;98170.88;4951568;28;124636;-76
2022/10/21 06:19:18;;;;;;;11.17;3.77;;;17.80;99.90;;;18.31;69.61;98179.69;4961807;28;123816;-75
2022/10/21 06:21:46;;;;;;;5.30;3.30;;;17.90;99.90;;;18.33;69.53;98185.72;4967752;28;115367;-74
2022/10/21 06:24:13;;;;;;;6.67;3.00;;;17.90;99.90;;;18.33;69.64;98189.31;4961021;28;114775;-74
2022/10/21 06:26:39;;;;;;;6.90;3.60;;;18.00;99.90;;;18.33;69.64;98196.91;4959174;28;124148;-74
2022/10/21 06:29:06;;;;;;;8.60;3.50;;;17.90;99.90;;;18.35;69.67;98199.31;4965160;28;123883;-74
2022/10/21 06:31:32;;;;;;;10.63;4.60;;;17.80;99.90;;;18.34;69.79;98201.31;4966951;28;113491;-74
2022/10/21 06:33:59;;;;;;;10.03;3.30;;;17.90;99.90;;;18.36;69.82;98198.16;4942940;28;113461;-75
2022/10/21 06:36:25;;;;;;;7.50;3.53;;;17.90;99.90;;;18.35;70.03;98197.34;4963978;28;123829;-73
2022/10/21 06:38:52;;;;;;;5.80;3.47;;;17.90;99.90;;;18.35;70.12;98200.16;4962124;28;123780;-73
2022/10/21 06:41:19;;;;;;;12.20;4.73;;;17.90;99.90;;;18.34;70.11;98218.09;4971453;28;114785;-73
2022/10/21 06:43:45;;;;;;;8.97;3.40;;;17.90;99.90;;;18.32;70.02;98217.66;4963738;28;114126;-73
2022/10/21 06:46:14;;;;;;;6.47;3.30;;;17.80;99.90;;;18.30;70.46;98220.84;4960900;28;124256;-73
2022/10/21 06:48:41;;;;;;;9.87;3.70;;;17.90;99.90;;;18.30;70.12;98217.25;4958931;28;124094;-73
2022/10/21 06:51:13;;;;;;;8.33;2.93;;;17.80;99.90;;;18.30;70.26;98214.47;4962784;28;114079;-73
2022/10/21 06:53:40;;;;;;;15.30;4.20;;;17.90;99.90;;;18.30;70.36;98217.25;4965302;28;112826;-76
2022/10/21 06:56:10;;;;;;;14.33;4.37;;;18.40;99.90;;;18.31;70.33;98227.25;4954855;28;124167;-73
2022/10/21 06:58:38;;;;;;;9.17;3.50;;;17.90;99.90;;;18.32;70.38;98240.03;4962731;28;123238;-73
2022/10/21 07:01:07;;;;;;;9.53;3.80;;;17.80;99.90;;;18.31;70.41;98249.63;4964625;28;115310;-74
2022/10/21 07:03:34;;;;;;;12.83;4.20;;;17.90;99.90;;;18.31;70.43;98255.22;4932541;28;113772;-73
2022/10/21 07:06:01;;;;;;;12.73;3.50;;;17.80;99.90;;;18.28;70.42;98250.38;4962417;28;124153;-74
2022/10/21 07:08:29;;;;;;;8.80;3.10;;;17.80;99.90;;;18.27;70.66;98254.38;4953801;28;124430;-73
2022/10/21 07:10:56;;;;;;;11.40;3.53;;;17.80;99.90;;;18.26;70.72;98253.53;4958171;28;115877;-74
2022/10/21 07:13:23;;;;;;;7.90;3.23;;;17.80;99.90;;;18.28;70.81;98242.00;4965481;28;115705;-75
2022/10/21 07:16:12;;;;;;;9.67;3.27;;;17.80;99.90;;;18.29;70.62;98254.78;4954180;28;124502;-74
2022/10/21 07:18:39;;;;;;;8.70;3.40;;;17.90;99.90;;;18.30;70.70;98234.03;4947727;28;123796;-74
2022/10/21 07:21:08;;;;;;;11.47;3.53;;;17.90;99.90;;;18.32;70.78;98226.88;4948171;28;113887;-74
2022/10/21 07:23:35;;;;;;;9.80;3.73;;;17.80;99.90;;;18.35;70.87;98235.69;4949163;28;114677;-74
2022/10/21 07:26:04;;;;;;;7.37;3.40;;;17.90;99.90;;;18.39;70.60;98203.78;4966457;28;124854;-74
2022/10/21 07:28:31;;;;;;;9.53;3.43;;;17.90;99.90;;;18.41;70.65;98170.66;4959092;28;123812;-72
2022/10/21 07:30:58;;;;;;;9.33;3.70;;;17.90;99.90;;;18.42;70.88;98191.03;4969773;28;113422;-73
2022/10/21 07:33:26;;;;;;;10.07;3.60;;;18.00;99.90;;;18.44;70.90;98195.06;4956241;28;113886;-73
2022/10/21 07:36:07;;;;;;;15.10;4.23;;;18.00;99.90;;;18.48;70.83;98200.69;4952277;28;123367;-74
2022/10/21 07:38:34;;;;;;;8.37;4.10;;;18.00;99.90;;;18.48;70.81;98215.50;4957042;28;123972;-74
2022/10/21 07:41:01;;;;;;;11.03;4.97;;;18.00;99.90;;;18.47;70.90;98246.66;4963658;28;114290;-73
2022/10/21 07:43:28;;;;;;;16.60;4.40;;;18.00;99.90;;;18.46;71.01;98259.84;4938930;28;114046;-73
2022/10/21 07:45:57;;;;;;;10.40;4.50;;;18.00;99.90;;;18.46;70.98;98242.25;4965500;28;123757;-73
2022/10/21 07:48:25;;;;;;;11.57;4.30;;;18.00;99.90;;;18.47;70.97;98244.66;4966302;28;123737;-73
2022/10/21 07:50:51;;;;;;;8.57;4.77;;;18.00;99.90;;;18.47;71.09;98243.84;4958303;28;114367;-74
2022/10/21 07:53:20;;;;;;;9.30;4.60;;;18.00;99.90;;;18.49;71.21;98247.88;4956737;28;114301;-73
2022/10/21 07:55:47;;;;;;;10.37;4.47;;;18.00;99.90;;;18.49;71.11;98253.47;4968512;28;124055;-73
2022/10/21 07:58:13;;;;;;;14.40;4.67;;;18.00;99.90;;;18.50;71.02;98255.06;4955597;28;123854;-75
2022/10/21 08:00:42;;;;;;;14.23;6.73;;;18.00;99.90;;;18.50;71.34;98266.28;4956943;28;115914;-74
2022/10/21 08:03:11;;;;;;;9.87;5.83;;;18.00;99.90;;;18.49;71.27;98250.69;4961779;28;114840;-74
2022/10/21 08:05:42;;;;;;;11.43;6.10;;;18.00;99.90;;;18.52;71.29;98251.91;4964639;28;124404;-75
2022/10/21 08:08:08;;;;;;;9.40;5.60;;;18.00;99.90;;;18.52;71.14;98238.72;4966554;28;124234;-75
2022/10/21 08:10:39;;;;;;;11.20;5.50;;;18.00;99.90;;;18.54;71.27;98233.56;4953337;28;113912;-74
2022/10/21 08:13:06;;;;;;;12.30;7.30;;;18.10;99.90;;;18.55;71.11;98235.16;4968838;28;114399;-75
2022/10/21 08:15:33;;;;;;;9.83;5.70;;;18.10;99.90;;;18.56;71.39;98233.16;4955027;28;124354;-74
2022/10/21 08:17:59;;;;;;;10.33;5.30;;;18.10;99.90;;;18.57;71.19;98246.00;4966524;28;123870;-72
2022/10/21 08:20:26;;;;;;;13.50;3.87;;;18.10;99.90;;;18.58;71.04;98241.19;4964837;28;113958;-72
2022/10/21 08:22:52;;;;;;;8.57;4.50;;;18.10;99.90;;;18.57;71.23;98242.41;4960718;28;114526;-75
2022/10/21 08:25:19;;;;;;;6.40;4.23;;;18.10;99.90;;;18.57;71.25;98248.78;4955882;28;124363;-77
2022/10/21 08:27:45;;;;;;;6.87;3.80;;;18.10;99.90;;;18.58;71.05;98255.19;4971674;28;123771;-75
2022/10/21 08:30:14;;;;;;;6.20;3.70;;;18.10;99.90;;;18.58;71.01;98247.59;4973081;28;114255;-74
2022/10/21 08:32:40;;;;;;;6.90;3.50;;;18.20;99.90;;;18.60;70.89;98236.03;4957832;28;114065;-74
2022/10/21 08:35:07;;;;;;;5.43;3.27;;;18.10;99.90;;;18.63;70.81;98218.47;4956209;28;124414;-74
2022/10/21 08:37:34;;;;;;;8.43;3.30;;;18.10;99.90;;;18.66;70.86;98209.31;4966528;28;123903;-76
2022/10/21 08:40:00;;;;;;;9.67;4.10;;;18.20;99.90;;;18.68;70.67;98213.34;4974912;28;113304;-76
2022/10/21 08:42:27;;;;;;;8.70;4.13;;;18.20;99.90;;;18.68;70.73;98215.34;4961373;28;114070;-76
2022/10/21 08:45:01;;;;;;;9.27;5.30;;;18.20;99.90;;;18.68;70.81;98215.34;4970063;28;124074;-76
2022/10/21 08:47:46;;;;;;;7.47;3.70;;;18.20;99.90;;;18.67;70.63;98208.13;4953664;28;125667;-76
2022/10/21 08:50:17;;;;;;;8.33;4.07;;;18.20;99.90;;;18.65;70.83;98219.72;4965151;28;115429;-76
2022/10/21 08:53:38;;;;;;;8.73;4.37;;;18.20;99.90;;;18.62;70.66;98234.47;4964005;28;113785;-76
2022/10/21 08:56:10;;;;;;;5.67;3.97;;;18.20;99.90;;;18.64;70.61;98229.28;4961758;28;124046;-75
2022/10/21 08:58:37;;;;;;;9.90;3.73;;;18.20;99.90;;;18.66;70.53;98234.50;4968773;28;124011;-75
2022/10/21 09:01:29;;;;;;;8.70;3.80;;;18.20;99.90;;;18.66;70.54;98301.66;4956740;28;113445;-76
2022/10/21 09:04:06;;;;;;;10.60;3.70;;;18.20;99.90;;;18.63;70.56;98271.66;4972753;28;114102;-76
2022/10/21 09:07:18;;;;;;;12.43;3.97;;;18.20;99.90;;;18.54;70.56;98225.16;4966543;28;124044;-76
2022/10/21 09:09:58;;;;;;;6.43;4.70;;;18.10;99.90;;;18.48;70.97;98274.25;4963895;28;123832;-75
2022/10/21 09:13:03;;;;;;;11.53;5.17;;;18.00;99.90;;;18.45;70.93;98285.38;4969804;28;114575;-76
2022/10/21 09:15:54;;;;;;;7.53;3.80;;;18.00;99.90;;;18.42;71.16;98270.16;4971097;28;114150;-77
2022/10/21 09:18:29;;;;;;;6.77;3.57;;;18.00;99.90;;;18.42;71.21;98274.94;4970793;28;124101;-79
2022/10/21 09:21:38;;;;;;;10.17;3.83;;;18.00;99.90;;;18.41;71.32;98296.53;4961801;28;123742;-77
2022/10/21 09:24:18;;;;;;;9.07;4.47;;;18.10;99.90;;;18.43;71.22;98299.75;4950453;28;113927;-77
2022/10/21 09:26:49;;;;;;;10.90;4.50;;;18.00;99.90;;;18.44;71.49;98304.16;4950970;28;113875;-77
2022/10/21 09:29:36;;;;;;;9.83;4.00;;;18.00;99.90;;;18.46;71.45;98310.19;4969584;28;124149;-77
2022/10/21 09:32:21;;;;;;;6.80;3.40;;;18.00;99.90;;;18.48;71.44;98305.03;4963826;28;124373;-76
2022/10/21 09:34:59;;;;;;;12.47;4.87;;;18.00;99.90;;;18.53;71.54;98318.66;4966505;28;114503;-77
2022/10/21 09:37:31;;;;;;;12.70;3.67;;;18.10;99.90;;;18.55;71.44;98312.69;4958085;28;113889;-77
2022/10/21 09:40:19;;;;;;;9.60;3.00;;;18.10;99.90;;;18.57;71.42;98315.13;4955004;28;124180;-75
2022/10/21 09:42:50;;;;;;;11.40;3.77;;;18.10;99.90;;;18.58;71.31;98322.34;4970751;28;123157;-77
2022/10/21 09:45:22;;;;;;;7.90;3.07;;;18.10;99.90;;;18.57;71.29;98310.34;4960760;28;115605;-77
2022/10/21 09:48:20;;;;;;;9.27;3.23;;;18.10;99.90;;;18.57;70.93;98315.13;4964291;28;114393;-77
2022/10/21 09:51:03;;;;;;;7.03;3.43;;;18.10;99.90;;;18.58;70.68;98322.34;4961011;28;124281;-76
2022/10/21 09:53:49;;;;;;;6.77;2.67;;;18.10;99.90;;;18.59;70.77;98329.53;4941757;28;123454;-76
2022/10/21 09:56:27;;;;;;;8.83;3.37;;;18.10;99.90;;;18.63;70.46;98327.59;4962339;28;114688;-77
2022/10/21 09:59:13;;;;;;;7.07;3.03;;;18.20;99.90;;;18.68;70.42;98319.69;4965477;28;114210;-77
2022/10/21 10:01:42;;;;;;;6.80;2.90;;;18.20;99.90;;;18.73;70.40;98335.34;4964731;28;124344;-77
2022/10/21 10:04:33;;;;;;;6.73;2.37;;;18.20;99.90;;;18.76;70.34;98329.81;4947378;28;123592;-78
2022/10/21 10:07:24;;;;;;;4.10;2.20;;;18.30;99.90;;;18.81;69.87;98333.50;4953388;28;114168;-75
2022/10/21 10:09:51;;;;;;;6.97;2.80;;;18.30;99.90;;;18.84;69.84;98329.94;4967493;28;113510;-77
2022/10/21 10:12:26;;;;;;;6.37;2.23;;;18.30;99.90;;;18.88;69.39;98334.38;4970253;28;122215;-77
2022/10/21 10:14:54;;;;;;;4.50;2.67;;;18.40;99.90;;;18.91;69.08;98336.44;4957700;28;124138;-76
2022/10/21 10:17:36;;;;;;;6.50;2.23;;;18.40;99.90;;;18.94;68.72;98335.69;4951056;28;113284;-77
2022/10/21 10:20:19;;;;;;;5.40;2.63;;;18.40;99.90;;;18.95;68.77;98345.69;4950099;28;114177;-76
2022/10/21 10:22:57;;;;;;;6.57;2.63;;;18.40;99.90;;;18.94;68.69;98332.88;4955691;28;124590;-76
2022/10/21 10:25:30;;;;;;;3.90;1.80;;;18.50;99.90;;;18.97;68.49;98331.31;4967437;28;124365;-76
2022/10/21 10:28:19;;;;;;;5.23;1.87;;;18.50;99.90;;;19.03;68.30;98323.38;4967825;28;114431;-76